createdAt,value
2023-02-04T00:00:29.359Z,3.40
2023-02-04T00:02:57.360Z,3.30
2023-02-04T00:05:25.105Z,2.80
2023-02-04T00:07:52.771Z,3.50
2023-02-04T00:10:20.688Z,3.30
2023-02-04T00:12:48.388Z,3.30
2023-02-04T00:15:17.423Z,3.00
2023-02-04T00:17:45.083Z,2.88
2023-02-04T00:20:13.333Z,2.83
2023-02-04T00:22:40.995Z,2.70
2023-02-04T00:25:09.574Z,2.80
2023-02-04T00:27:37.283Z,2.25
2023-02-04T00:30:05.415Z,2.40
2023-02-04T00:32:34.558Z,2.50
2023-02-04T00:35:04.652Z,2.10
2023-02-04T00:37:32.725Z,2.38
2023-02-04T00:40:00.411Z,2.50
2023-02-04T00:42:28.416Z,2.85
2023-02-04T00:44:56.140Z,2.10
2023-02-04T00:47:23.815Z,2.25
2023-02-04T00:49:52.875Z,2.10
2023-02-04T00:52:20.564Z,1.95
2023-02-04T00:54:48.288Z,2.47
2023-02-04T00:57:15.999Z,2.10
2023-02-04T00:59:43.670Z,2.30
2023-02-04T01:02:11.413Z,1.90
2023-02-04T01:04:39.090Z,2.60
2023-02-04T01:07:08.541Z,2.90
2023-02-04T01:09:36.199Z,2.92
2023-02-04T01:12:03.987Z,3.30
2023-02-04T01:14:31.626Z,2.70
2023-02-04T01:16:59.349Z,3.30
2023-02-04T01:19:26.987Z,3.42
2023-02-04T01:21:54.640Z,3.10
2023-02-04T01:24:23.662Z,3.67
2023-02-04T01:26:51.349Z,3.40
2023-02-04T01:29:19.044Z,3.55
2023-02-04T01:31:46.774Z,3.70
2023-02-04T01:34:14.506Z,3.50
2023-02-04T01:36:42.154Z,3.08
2023-02-04T01:39:09.816Z,4.05
2023-02-04T01:41:39.040Z,3.33
2023-02-04T01:44:07.450Z,3.00
2023-02-04T01:46:37.344Z,2.67
2023-02-04T01:49:05.466Z,2.63
2023-02-04T01:51:33.370Z,1.95
2023-02-04T01:54:01.342Z,1.80
2023-02-04T01:56:31.570Z,1.90
2023-02-04T01:59:01.181Z,1.98
2023-02-04T02:01:37.649Z,2.15
2023-02-04T02:04:05.891Z,1.80
2023-02-04T02:06:33.702Z,2.30
2023-02-04T02:09:02.418Z,1.60
2023-02-04T02:11:30.674Z,1.40
2023-02-04T02:14:00.077Z,1.90
2023-02-04T02:16:27.973Z,1.70
2023-02-04T02:18:57.627Z,1.50
2023-02-04T02:21:35.522Z,1.63
2023-02-04T02:24:26.433Z,2.00
2023-02-04T02:26:54.724Z,1.70
2023-02-04T02:29:23.204Z,1.50
2023-02-04T02:31:51.726Z,2.45
2023-02-04T02:34:19.562Z,2.03
2023-02-04T02:36:47.283Z,2.03
2023-02-04T02:39:16.388Z,2.50
2023-02-04T02:41:44.151Z,1.80
2023-02-04T02:44:13.529Z,1.67
2023-02-04T02:46:41.520Z,2.00
2023-02-04T02:49:15.522Z,2.10
2023-02-04T02:51:43.405Z,1.30
2023-02-04T02:54:24.075Z,2.33
2023-02-04T02:56:52.620Z,1.95
2023-02-04T02:59:21.590Z,2.03
2023-02-04T03:01:52.752Z,2.15
2023-02-04T03:04:21.614Z,2.50
2023-02-04T03:06:50.397Z,2.40
2023-02-04T03:09:18.643Z,1.83
2023-02-04T03:11:47.783Z,2.20
2023-02-04T03:14:16.198Z,2.38
2023-02-04T03:16:44.399Z,2.50
2023-02-04T03:19:13.588Z,2.83
2023-02-04T03:21:42.528Z,2.10
2023-02-04T03:24:10.900Z,2.13
2023-02-04T03:26:38.936Z,2.38
2023-02-04T03:29:09.900Z,2.45
2023-02-04T03:31:38.303Z,2.28
2023-02-04T03:34:06.434Z,2.65
2023-02-04T03:36:34.202Z,2.45
2023-02-04T03:39:02.000Z,2.15
2023-02-04T03:41:30.115Z,2.30
2023-02-04T03:43:57.736Z,2.17
2023-02-04T03:46:27.480Z,2.03
2023-02-04T03:48:55.335Z,2.38
2023-02-04T03:51:23.017Z,2.33
2023-02-04T03:53:50.669Z,2.20
2023-02-04T03:56:18.421Z,2.55
2023-02-04T03:58:46.077Z,2.45
2023-02-04T04:01:13.860Z,2.38
2023-02-04T04:03:42.899Z,3.35
2023-02-04T04:06:11.184Z,2.60
2023-02-04T04:08:39.645Z,2.70
2023-02-04T04:11:07.315Z,2.50
2023-02-04T04:13:35.046Z,2.47
2023-02-04T04:16:03.527Z,2.30
2023-02-04T04:18:31.153Z,3.08
2023-02-04T04:21:00.294Z,2.55
2023-02-04T04:23:28.465Z,2.47
2023-02-04T04:25:56.124Z,2.85
2023-02-04T04:28:23.757Z,2.33
2023-02-04T04:30:51.485Z,2.50
2023-02-04T04:33:19.121Z,2.05
2023-02-04T04:35:46.893Z,2.90
2023-02-04T04:38:15.897Z,2.40
2023-02-04T04:40:43.503Z,2.88
2023-02-04T04:43:11.123Z,2.75
2023-02-04T04:45:38.784Z,2.50
2023-02-04T04:48:06.810Z,2.72
2023-02-04T04:50:34.706Z,2.55
2023-02-04T04:53:02.481Z,2.28
2023-02-04T04:55:32.769Z,3.10
2023-02-04T04:58:00.423Z,2.65
2023-02-04T05:00:28.190Z,2.47
2023-02-04T05:02:55.806Z,2.58
2023-02-04T05:05:23.501Z,2.75
2023-02-04T05:07:51.217Z,3.17
2023-02-04T05:10:19.342Z,3.28
2023-02-04T05:12:48.378Z,3.17
2023-02-04T05:15:16.336Z,3.10
2023-02-04T05:17:44.042Z,3.10
2023-02-04T05:20:12.626Z,3.25
2023-02-04T05:22:40.394Z,3.25
2023-02-04T05:25:08.284Z,3.30
2023-02-04T05:27:35.953Z,3.40
2023-02-04T05:30:05.510Z,3.25
2023-02-04T05:32:33.178Z,3.80
2023-02-04T05:35:00.798Z,3.85
2023-02-04T05:37:28.503Z,3.92
2023-02-04T05:39:56.132Z,4.03
2023-02-04T05:42:23.808Z,3.97
2023-02-04T05:44:51.617Z,4.28
2023-02-04T05:47:21.205Z,3.70
2023-02-04T05:49:48.856Z,4.90
2023-02-04T05:52:16.571Z,4.57
2023-02-04T05:54:44.244Z,3.50
2023-02-04T05:57:11.950Z,3.80
2023-02-04T05:59:39.601Z,4.00
2023-02-04T06:02:07.275Z,4.00
2023-02-04T06:04:36.388Z,4.70
2023-02-04T06:07:04.289Z,5.28
2023-02-04T06:09:31.942Z,5.90
2023-02-04T06:11:59.606Z,4.78
2023-02-04T06:14:27.275Z,4.13
2023-02-04T06:16:54.997Z,4.68
2023-02-04T06:19:22.675Z,4.88
2023-02-04T06:21:51.658Z,4.70
2023-02-04T06:24:19.518Z,5.13
2023-02-04T06:26:47.150Z,5.10
2023-02-04T06:29:14.784Z,5.22
2023-02-04T06:31:43.056Z,5.53
2023-02-04T06:34:11.024Z,5.18
2023-02-04T06:36:38.763Z,4.93
2023-02-04T06:39:07.820Z,4.90
2023-02-04T06:41:35.496Z,6.47
2023-02-04T06:44:03.169Z,5.50
2023-02-04T06:46:30.833Z,6.10
2023-02-04T06:48:58.497Z,4.80
2023-02-04T06:51:26.372Z,5.10
2023-02-04T06:53:54.070Z,5.95
2023-02-04T06:56:24.908Z,5.30
2023-02-04T06:58:52.575Z,5.25
2023-02-04T07:01:20.746Z,6.25
2023-02-04T07:03:48.367Z,6.57
2023-02-04T07:06:16.037Z,5.70
2023-02-04T07:08:43.765Z,7.47
2023-02-04T07:11:11.419Z,6.25
2023-02-04T07:13:40.416Z,4.90
2023-02-04T07:16:08.667Z,5.05
2023-02-04T07:18:36.743Z,5.93
2023-02-04T07:21:04.703Z,5.22
2023-02-04T07:23:32.419Z,6.05
2023-02-04T07:26:00.361Z,5.90
2023-02-04T07:28:28.199Z,7.38
2023-02-04T07:30:57.477Z,5.82
2023-02-04T07:33:25.244Z,6.07
2023-02-04T07:35:53.153Z,4.95
2023-02-04T07:38:20.836Z,5.85
2023-02-04T07:40:48.561Z,7.05
2023-02-04T07:43:16.343Z,5.90
2023-02-04T07:45:44.019Z,5.50
2023-02-04T07:48:13.090Z,5.13
2023-02-04T07:50:40.816Z,5.30
2023-02-04T07:53:08.526Z,5.75
2023-02-04T07:55:36.205Z,5.75
2023-02-04T07:58:04.828Z,5.43
2023-02-04T08:00:32.853Z,5.20
2023-02-04T08:03:00.855Z,6.13
2023-02-04T08:05:30.399Z,5.50
2023-02-04T08:07:58.569Z,4.85
2023-02-04T08:10:26.510Z,5.70
2023-02-04T08:12:54.292Z,4.40
2023-02-04T08:15:22.018Z,4.95
2023-02-04T08:17:49.699Z,5.35
2023-02-04T08:20:18.408Z,4.53
2023-02-04T08:22:47.496Z,5.20
2023-02-04T08:25:15.244Z,5.18
2023-02-04T08:27:43.155Z,3.50
2023-02-04T08:30:11.879Z,4.78
2023-02-04T08:32:40.272Z,4.93
2023-02-04T08:35:09.127Z,4.88
2023-02-04T08:37:36.770Z,5.00
2023-02-04T08:40:06.540Z,5.07
2023-02-04T08:42:34.796Z,5.45
2023-02-04T08:45:02.529Z,5.18
2023-02-04T08:47:30.436Z,5.20
2023-02-04T08:49:58.155Z,4.30
2023-02-04T08:52:25.970Z,3.58
2023-02-04T08:54:53.714Z,4.45
2023-02-04T08:57:22.743Z,4.38
2023-02-04T08:59:50.397Z,5.50
2023-02-04T09:02:18.077Z,4.55
2023-02-04T09:04:45.801Z,4.30
2023-02-04T09:07:13.501Z,3.92
2023-02-04T09:09:41.207Z,4.90
2023-02-04T09:12:08.893Z,4.30
2023-02-04T09:14:37.968Z,3.70
2023-02-04T09:17:05.922Z,4.13
2023-02-04T09:19:33.669Z,4.00
2023-02-04T09:22:01.395Z,4.30
2023-02-04T09:24:29.222Z,3.67
2023-02-04T09:26:57.043Z,3.73
2023-02-04T09:29:24.876Z,4.00
2023-02-04T09:31:53.949Z,4.13
2023-02-04T09:34:21.773Z,4.03
2023-02-04T09:36:49.510Z,4.97
2023-02-04T09:39:17.280Z,3.67
2023-02-04T09:41:45.134Z,4.13
2023-02-04T09:44:17.962Z,3.20
2023-02-04T09:46:49.707Z,3.27
2023-02-04T09:49:19.122Z,4.30
2023-02-04T09:51:48.770Z,4.17
2023-02-04T09:54:18.309Z,3.50
2023-02-04T09:56:47.154Z,3.00
2023-02-04T09:59:17.496Z,3.40
2023-02-04T10:01:45.323Z,3.07
2023-02-04T10:04:15.337Z,4.13
2023-02-04T10:06:45.200Z,3.50
2023-02-04T10:09:15.281Z,2.88
2023-02-04T10:11:45.371Z,3.10
2023-02-04T10:14:16.145Z,2.80
2023-02-04T10:16:45.128Z,4.15
2023-02-04T10:19:15.937Z,4.40
2023-02-04T10:21:46.064Z,3.83
2023-02-04T10:24:16.165Z,3.70
2023-02-04T10:26:43.977Z,3.63
2023-02-04T10:29:16.325Z,3.47
2023-02-04T10:31:45.971Z,3.50
2023-02-04T10:34:18.645Z,5.37
2023-02-04T10:36:50.858Z,3.50
2023-02-04T10:39:20.578Z,2.40
2023-02-04T10:41:50.284Z,3.65
2023-02-04T10:44:21.016Z,3.60
2023-02-04T10:46:49.022Z,3.10
2023-02-04T10:49:19.713Z,3.20
2023-02-04T10:51:50.507Z,3.53
2023-02-04T10:54:30.185Z,3.22
2023-02-04T10:56:58.966Z,4.70
2023-02-04T10:59:29.028Z,3.95
2023-02-04T11:01:58.648Z,3.15
2023-02-04T11:04:28.769Z,3.97
2023-02-04T11:06:57.788Z,2.55
2023-02-04T11:09:25.533Z,3.00
2023-02-04T11:11:53.316Z,3.35
2023-02-04T11:14:28.215Z,2.90
2023-02-04T11:17:00.482Z,3.00
2023-02-04T11:19:37.890Z,3.00
2023-02-04T11:22:23.436Z,2.90
2023-02-04T11:24:51.598Z,3.08
2023-02-04T11:27:22.774Z,3.25
2023-02-04T11:29:50.960Z,3.50
2023-02-04T11:32:31.478Z,4.03
2023-02-04T11:35:23.233Z,3.72
2023-02-04T11:37:52.482Z,3.55
2023-02-04T11:40:29.304Z,4.00
2023-02-04T11:43:10.117Z,3.10
2023-02-04T11:45:39.387Z,3.30
2023-02-04T11:48:14.644Z,3.50
2023-02-04T11:50:43.018Z,3.20
2023-02-04T11:53:13.243Z,3.45
2023-02-04T11:55:47.533Z,3.78
2023-02-04T11:58:17.404Z,2.80
2023-02-04T12:00:45.820Z,3.20
2023-02-04T12:03:25.681Z,2.92
2023-02-04T12:05:55.922Z,3.13
2023-02-04T12:08:32.729Z,3.47
2023-02-04T12:11:04.758Z,3.33
2023-02-04T12:13:33.280Z,3.40
2023-02-04T12:16:02.878Z,2.70
2023-02-04T12:18:31.164Z,3.05
2023-02-04T12:20:59.842Z,3.25
2023-02-04T12:23:30.544Z,3.63
2023-02-04T12:25:58.403Z,2.55
2023-02-04T12:28:27.988Z,3.65
2023-02-04T12:30:56.058Z,3.10
2023-02-04T12:33:24.222Z,3.08
2023-02-04T12:35:51.880Z,2.60
2023-02-04T12:38:20.589Z,3.40
2023-02-04T12:40:49.741Z,2.03
2023-02-04T12:43:17.384Z,2.85
2023-02-04T12:45:46.382Z,2.85
2023-02-04T12:48:15.025Z,1.80
2023-02-04T12:50:42.989Z,2.25
2023-02-04T12:53:10.676Z,2.47
2023-02-04T12:55:38.421Z,3.70
2023-02-04T12:58:07.561Z,2.20
2023-02-04T13:00:35.384Z,2.33
2023-02-04T13:03:03.237Z,2.38
2023-02-04T13:05:31.392Z,2.60
2023-02-04T13:07:59.296Z,2.80
2023-02-04T13:10:26.942Z,3.22
2023-02-04T13:12:54.592Z,2.65
2023-02-04T13:15:23.612Z,3.38
2023-02-04T13:17:51.258Z,3.28
2023-02-04T13:20:19.178Z,3.15
2023-02-04T13:22:46.885Z,3.00
2023-02-04T13:25:14.810Z,3.10
2023-02-04T13:27:42.690Z,2.95
2023-02-04T13:30:12.807Z,3.78
2023-02-04T13:32:42.039Z,3.55
2023-02-04T13:35:10.026Z,3.80
2023-02-04T13:37:38.184Z,4.43
2023-02-04T13:40:06.453Z,3.95
2023-02-04T13:42:34.208Z,4.47
2023-02-04T13:45:01.837Z,3.85
2023-02-04T13:47:29.434Z,4.82
2023-02-04T13:49:58.736Z,3.85
2023-02-04T13:52:26.514Z,3.58
2023-02-04T13:54:55.117Z,4.15
2023-02-04T13:57:23.053Z,3.80
2023-02-04T13:59:50.699Z,3.70
2023-02-04T14:02:18.462Z,3.03
2023-02-04T14:04:46.875Z,3.83
2023-02-04T14:07:15.895Z,4.00
2023-02-04T14:09:43.554Z,4.78
2023-02-04T14:12:12.335Z,3.95
2023-02-04T14:14:39.973Z,3.40
2023-02-04T14:17:07.680Z,3.70
2023-02-04T14:19:35.345Z,2.85
2023-02-04T14:22:02.994Z,3.50
2023-02-04T14:24:32.256Z,3.20
2023-02-04T14:27:01.257Z,3.47
2023-02-04T14:29:28.935Z,3.45
2023-02-04T14:31:56.638Z,2.70
2023-02-04T14:34:24.376Z,3.42
2023-02-04T14:36:52.060Z,3.17
2023-02-04T14:39:19.807Z,3.15
2023-02-04T14:41:48.859Z,3.42
2023-02-04T14:44:20.649Z,3.60
2023-02-04T14:46:49.048Z,5.00
2023-02-04T14:49:16.985Z,4.13
2023-02-04T14:51:45.143Z,3.15
2023-02-04T14:54:13.599Z,3.15
2023-02-04T14:56:41.545Z,3.30
2023-02-04T14:59:11.052Z,3.17
2023-02-04T15:01:38.738Z,3.63
2023-02-04T15:04:06.600Z,4.10
2023-02-04T15:06:34.210Z,3.00
2023-02-04T15:09:01.989Z,2.75
2023-02-04T15:11:29.658Z,3.55
2023-02-04T15:13:57.302Z,4.03
2023-02-04T15:16:26.559Z,3.45
2023-02-04T15:18:54.516Z,3.22
2023-02-04T15:21:22.237Z,3.25
2023-02-04T15:23:49.998Z,2.65
2023-02-04T15:26:18.663Z,2.42
2023-02-04T15:28:46.322Z,2.90
2023-02-04T15:31:14.042Z,2.90
2023-02-04T15:33:43.107Z,3.95
2023-02-04T15:36:10.823Z,2.83
2023-02-04T15:38:38.417Z,2.67
2023-02-04T15:41:06.554Z,2.42
2023-02-04T15:43:34.213Z,2.17
2023-02-04T15:46:01.995Z,2.75
2023-02-04T15:48:29.720Z,3.45
2023-02-04T15:50:58.817Z,2.72
2023-02-04T15:53:26.979Z,2.50
2023-02-04T15:55:54.650Z,2.10
2023-02-04T15:58:22.339Z,2.03
2023-02-04T16:00:49.979Z,2.20
2023-02-04T16:03:17.660Z,2.28
2023-02-04T16:05:45.387Z,2.22
2023-02-04T16:08:14.481Z,2.20
2023-02-04T16:10:42.187Z,2.70
2023-02-04T16:13:10.112Z,2.55
2023-02-04T16:15:37.910Z,2.40
2023-02-04T16:18:05.955Z,2.35
2023-02-04T16:20:33.743Z,2.83
2023-02-04T16:23:02.952Z,2.28
2023-02-04T16:25:32.477Z,3.03
2023-02-04T16:28:00.460Z,2.83
2023-02-04T16:30:28.293Z,3.50
2023-02-04T16:32:56.238Z,3.00
2023-02-04T16:35:24.024Z,3.95
2023-02-04T16:37:51.703Z,3.70
2023-02-04T16:40:20.223Z,2.78
2023-02-04T16:42:49.316Z,2.20
2023-02-04T16:45:17.194Z,3.33
2023-02-04T16:47:44.937Z,2.90
2023-02-04T16:50:12.735Z,2.67
2023-02-04T16:52:40.436Z,3.15
2023-02-04T16:55:08.218Z,4.15
2023-02-04T16:57:35.986Z,3.92
2023-02-04T17:00:05.686Z,3.72
2023-02-04T17:02:37.167Z,3.67
2023-02-04T17:05:05.576Z,3.90
2023-02-04T17:07:33.304Z,3.45
2023-02-04T17:10:01.137Z,3.00
2023-02-04T17:12:28.821Z,3.00
2023-02-04T17:14:56.453Z,3.72
2023-02-04T17:17:25.511Z,2.80
2023-02-04T17:19:53.195Z,3.90
2023-02-04T17:22:21.068Z,3.95
2023-02-04T17:24:48.726Z,3.65
2023-02-04T17:27:16.437Z,4.60
2023-02-04T17:29:44.096Z,3.50
2023-02-04T17:32:12.459Z,3.53
2023-02-04T17:34:41.467Z,5.53
2023-02-04T17:37:09.104Z,3.72
2023-02-04T17:39:36.772Z,4.72
2023-02-04T17:42:04.678Z,3.72
2023-02-04T17:44:33.107Z,3.38
2023-02-04T17:47:00.890Z,3.80
2023-02-04T17:49:28.674Z,3.20
2023-02-04T17:51:57.701Z,5.20
2023-02-04T17:54:25.710Z,5.90
2023-02-04T17:56:53.437Z,4.90
2023-02-04T17:59:21.291Z,5.68
2023-02-04T18:01:49.239Z,8.77
2023-02-04T18:04:17.233Z,4.70
2023-02-04T18:06:44.912Z,4.10
2023-02-04T18:09:16.887Z,5.05
2023-02-04T18:11:45.623Z,4.60
2023-02-04T18:14:17.785Z,4.78
2023-02-04T18:16:46.174Z,4.40
2023-02-04T18:19:19.885Z,3.95
2023-02-04T18:21:48.556Z,4.63
2023-02-04T18:24:19.501Z,4.15
2023-02-04T18:26:49.117Z,4.10
2023-02-04T18:29:32.315Z,4.80
2023-02-04T18:32:02.598Z,5.07
2023-02-04T18:34:36.502Z,6.75
2023-02-04T18:37:29.769Z,5.50
2023-02-04T18:40:17.611Z,6.18
2023-02-04T18:42:47.480Z,5.57
2023-02-04T18:45:24.149Z,4.70
2023-02-04T18:47:54.835Z,3.80
2023-02-04T18:50:29.629Z,5.43
2023-02-04T18:52:57.534Z,5.20
2023-02-04T18:55:33.092Z,3.90
2023-02-04T18:58:25.829Z,3.20
2023-02-04T19:00:57.573Z,4.68
2023-02-04T19:03:27.516Z,3.90
2023-02-04T19:05:57.042Z,7.38
2023-02-04T19:08:27.670Z,6.40
2023-02-04T19:10:58.096Z,9.40
2023-02-04T19:13:27.928Z,7.50
2023-02-04T19:16:02.030Z,6.05
2023-02-04T19:18:33.842Z,6.07
2023-02-04T19:21:22.680Z,6.10
2023-02-04T19:23:52.058Z,4.57
2023-02-04T19:26:37.014Z,4.35
2023-02-04T19:29:43.247Z,3.50
2023-02-04T19:32:32.750Z,4.80
2023-02-04T19:35:09.083Z,6.07
2023-02-04T19:37:41.203Z,5.95
2023-02-04T19:40:31.756Z,5.93
2023-02-04T19:43:20.570Z,5.93
2023-02-04T19:45:50.792Z,5.30
2023-02-04T19:48:23.656Z,6.03
2023-02-04T19:50:53.927Z,5.38
2023-02-04T19:53:29.487Z,6.13
2023-02-04T19:55:58.090Z,9.80
2023-02-04T19:58:29.774Z,8.60
2023-02-04T20:01:03.180Z,6.90
2023-02-04T20:03:42.213Z,7.20
2023-02-04T20:06:27.497Z,7.05
2023-02-04T20:09:05.222Z,6.32
2023-02-04T20:11:59.914Z,6.97
2023-02-04T20:14:47.082Z,7.13
2023-02-04T20:17:24.406Z,7.00
2023-02-04T20:19:52.301Z,7.78
2023-02-04T20:22:42.818Z,7.20
2023-02-04T20:25:41.732Z,5.55
2023-02-04T20:28:40.326Z,7.95
2023-02-04T20:31:25.502Z,7.55
2023-02-04T20:33:56.744Z,8.88
2023-02-04T20:36:46.747Z,8.20
2023-02-04T20:39:39.179Z,9.77
2023-02-04T20:42:25.019Z,8.23
2023-02-04T20:44:53.270Z,8.15
2023-02-04T20:47:24.993Z,13.13
2023-02-04T20:49:55.299Z,12.52
2023-02-04T20:53:10.921Z,9.05
2023-02-04T20:55:38.610Z,7.93
2023-02-04T20:58:18.889Z,8.30
2023-02-04T21:00:52.087Z,8.63
2023-02-04T21:03:27.746Z,8.15
2023-02-04T21:05:57.456Z,8.50
2023-02-04T21:08:44.828Z,9.32
2023-02-04T21:11:12.709Z,8.30
2023-02-04T21:13:41.056Z,8.05
2023-02-04T21:16:09.660Z,7.78
2023-02-04T21:18:39.637Z,8.73
2023-02-04T21:21:09.510Z,9.43
2023-02-04T21:23:37.744Z,9.40
2023-02-04T21:26:06.416Z,8.85
2023-02-04T21:28:34.809Z,9.32
2023-02-04T21:31:03.131Z,8.10
2023-02-04T21:33:32.032Z,8.82
2023-02-04T21:36:02.022Z,8.50
2023-02-04T21:38:30.222Z,16.83
2023-02-04T21:40:57.863Z,19.55
2023-02-04T21:43:25.612Z,14.38
2023-02-04T21:45:53.462Z,14.23
2023-02-04T21:48:21.605Z,7.50
2023-02-04T21:50:51.378Z,20.80
2023-02-04T21:53:20.459Z,16.30
2023-02-04T21:55:48.154Z,18.25
2023-02-04T21:58:16.649Z,16.70
2023-02-04T22:00:44.931Z,16.48
2023-02-04T22:03:18.074Z,9.20
2023-02-04T22:05:47.117Z,9.25
2023-02-04T22:08:15.051Z,9.50
2023-02-04T22:10:44.374Z,8.30
2023-02-04T22:13:12.073Z,9.13
2023-02-04T22:15:39.832Z,9.45
2023-02-04T22:18:07.498Z,9.57
2023-02-04T22:20:35.416Z,9.52
2023-02-04T22:23:03.202Z,19.60
2023-02-04T22:25:32.078Z,24.52
2023-02-04T22:28:01.498Z,10.32
2023-02-04T22:30:29.236Z,9.95
2023-02-04T22:33:00.184Z,9.52
2023-02-04T22:35:29.918Z,8.85
2023-02-04T22:38:00.533Z,9.15
2023-02-04T22:40:30.052Z,9.32
2023-02-04T22:42:58.365Z,11.02
2023-02-04T22:45:27.457Z,16.92
2023-02-04T22:47:55.137Z,9.05
2023-02-04T22:50:22.900Z,10.38
2023-02-04T22:52:50.719Z,10.65
2023-02-04T22:55:19.084Z,10.75
2023-02-04T22:57:46.990Z,9.10
2023-02-04T23:00:15.970Z,9.25
2023-02-04T23:02:45.001Z,28.23
2023-02-04T23:05:12.697Z,10.35
2023-02-04T23:07:40.351Z,9.35
2023-02-04T23:10:09.252Z,11.60
2023-02-04T23:12:37.306Z,11.48
2023-02-04T23:15:05.562Z,28.48
2023-02-04T23:17:33.265Z,19.80
2023-02-04T23:20:02.330Z,11.35
2023-02-04T23:22:30.505Z,8.80
2023-02-04T23:24:58.831Z,8.43
2023-02-04T23:27:26.574Z,8.15
2023-02-04T23:29:54.223Z,8.23
2023-02-04T23:32:23.341Z,8.45
2023-02-04T23:34:51.161Z,8.48
2023-02-04T23:37:20.262Z,8.35
2023-02-04T23:39:47.951Z,29.55
2023-02-04T23:42:15.766Z,13.25
2023-02-04T23:44:43.505Z,20.30
2023-02-04T23:47:11.204Z,25.67
2023-02-04T23:49:38.870Z,12.45
2023-02-04T23:52:07.363Z,8.95
2023-02-04T23:54:36.545Z,7.78
2023-02-04T23:57:04.310Z,7.65
2023-02-04T23:59:32.190Z,8.60
